Time;durP1;ratioP1;P1;durP2;ratioP2;P2;SDS_P1;SDS_P2;PMS_P1;PMS_P2;Temp;Humidity;BMP_temperature;BMP_pressure;BME280_temperature;BME280_humidity;BME280_pressure;Samples;Min_cycle;Max_cycle;Signal;HPM_P1;HPM_P2
2022/03/24 00:02:02;;;;;;;2.20;1.90;;;22.70;51.60;;;;;;4974268;28;20431;-90
2022/03/24 00:04:30;;;;;;;2.50;2.30;;;22.70;51.60;;;;;;4973887;28;20449;-89
2022/03/24 00:06:56;;;;;;;4.30;3.20;;;22.70;51.60;;;;;;4987821;28;20429;-89
2022/03/24 00:09:22;;;;;;;2.27;2.07;;;22.70;51.60;;;;;;4989959;28;20409;-90
2022/03/24 00:11:48;;;;;;;2.20;1.87;;;22.70;51.60;;;;;;4971788;28;20197;-89
2022/03/24 00:14:16;;;;;;;2.73;2.17;;;22.70;51.60;;;;;;4972032;28;20189;-89
2022/03/24 00:16:43;;;;;;;2.53;2.23;;;22.70;51.60;;;;;;4957906;29;20323;-90
2022/03/24 00:19:09;;;;;;;2.00;1.80;;;22.70;51.60;;;;;;4969757;29;20410;-89
2022/03/24 00:21:37;;;;;;;2.13;1.93;;;22.70;51.60;;;;;;4952953;29;20505;-88
2022/03/24 00:24:03;;;;;;;2.50;2.20;;;22.70;51.60;;;;;;4973439;28;20438;-88
2022/03/24 00:26:29;;;;;;;2.73;2.40;;;22.70;51.60;;;;;;4974121;28;20925;-88
2022/03/24 00:28:55;;;;;;;2.43;1.87;;;22.70;51.60;;;;;;4994404;28;20443;-88
2022/03/24 00:31:22;;;;;;;2.40;2.20;;;22.70;51.60;;;;;;4988551;28;20487;-88
2022/03/24 00:33:48;;;;;;;1.97;1.80;;;22.70;51.60;;;;;;4974168;28;20245;-88
2022/03/24 00:36:14;;;;;;;2.60;2.40;;;22.70;51.60;;;;;;4976465;28;20940;-88
2022/03/24 00:38:40;;;;;;;2.13;1.93;;;22.70;51.60;;;;;;4991369;28;20409;-88
2022/03/24 00:41:07;;;;;;;2.17;1.97;;;22.70;51.70;;;;;;4974015;28;20448;-89
2022/03/24 00:43:33;;;;;;;2.33;1.83;;;22.70;51.60;;;;;;4975816;28;20417;-88
2022/03/24 00:45:59;;;;;;;2.30;2.10;;;22.70;51.70;;;;;;4971269;28;20416;-88
2022/03/24 00:48:31;;;;;;;2.77;2.27;;;22.70;51.70;;;;;;4988332;28;20409;-89
2022/03/24 00:50:57;;;;;;;3.03;2.73;;;22.70;51.70;;;;;;4970585;28;20473;-88
2022/03/24 00:53:23;;;;;;;2.23;2.00;;;22.70;51.70;;;;;;4972702;28;20989;-91
2022/03/24 00:55:49;;;;;;;2.27;1.90;;;22.70;51.70;;;;;;4975067;28;20190;-90
2022/03/24 00:58:15;;;;;;;2.13;1.93;;;22.70;51.70;;;;;;4972279;28;20525;-90
2022/03/24 01:00:41;;;;;;;2.43;2.23;;;22.70;51.70;;;;;;4989813;28;20509;-90
2022/03/24 01:03:07;;;;;;;2.50;1.93;;;22.60;51.60;;;;;;4975638;28;20429;-90
2022/03/24 01:05:37;;;;;;;2.73;2.33;;;22.70;51.70;;;;;;4987777;28;20209;-90
2022/03/24 01:08:05;;;;;;;2.83;2.30;;;22.70;51.70;;;;;;4989846;28;20187;-90
2022/03/24 01:10:32;;;;;;;2.93;2.00;;;22.60;51.60;;;;;;4974846;28;20460;-90
2022/03/24 01:12:59;;;;;;;3.10;1.93;;;22.70;51.70;;;;;;4970670;28;20461;-90
2022/03/24 01:15:25;;;;;;;2.33;2.13;;;22.70;51.70;;;;;;4971693;28;20421;-90
2022/03/24 01:17:51;;;;;;;2.40;1.90;;;22.60;51.60;;;;;;4970886;28;20825;-90
2022/03/24 01:20:21;;;;;;;3.23;2.57;;;22.60;51.60;;;;;;4971257;28;20425;-90
2022/03/24 01:22:47;;;;;;;2.03;1.83;;;22.70;51.70;;;;;;4988549;28;20423;-89
2022/03/24 01:25:14;;;;;;;2.03;1.80;;;22.60;51.60;;;;;;4969799;28;20425;-90
2022/03/24 01:27:39;;;;;;;2.23;1.90;;;22.60;51.60;;;;;;4988181;28;20185;-90
2022/03/24 01:30:09;;;;;;;2.30;1.93;;;22.60;51.60;;;;;;4967475;29;20461;-91
2022/03/24 01:32:36;;;;;;;2.07;1.87;;;22.60;51.60;;;;;;4970916;28;20201;-90
2022/03/24 01:35:07;;;;;;;2.27;1.83;;;22.60;51.60;;;;;;4971039;28;21023;-90
2022/03/24 01:37:33;;;;;;;2.20;2.00;;;22.60;51.60;;;;;;4970294;28;20409;-90
2022/03/24 01:39:59;;;;;;;2.50;2.10;;;22.60;51.60;;;;;;4973772;28;20424;-90
2022/03/24 01:42:26;;;;;;;2.30;1.93;;;22.60;51.60;;;;;;4986516;28;20433;-90
2022/03/24 01:44:56;;;;;;;2.87;2.00;;;22.60;51.60;;;;;;4976000;28;20187;-89
2022/03/24 01:47:22;;;;;;;2.37;2.17;;;22.60;51.60;;;;;;4970946;28;20453;-90
2022/03/24 01:49:48;;;;;;;2.17;1.97;;;22.60;51.60;;;;;;4994412;28;20473;-89
2022/03/24 01:52:15;;;;;;;2.53;1.90;;;22.60;51.70;;;;;;4974222;28;20475;-90
2022/03/24 01:54:45;;;;;;;1.90;1.70;;;22.60;51.60;;;;;;4974023;28;20424;-90
2022/03/24 01:57:13;;;;;;;1.80;1.70;;;22.60;51.60;;;;;;4991699;28;20825;-90
2022/03/24 01:59:40;;;;;;;2.90;2.03;;;22.60;51.70;;;;;;4973868;28;20465;-90
2022/03/24 02:02:07;;;;;;;2.10;1.90;;;22.60;51.70;;;;;;4990626;28;20886;-90
2022/03/24 02:04:36;;;;;;;2.10;1.80;;;22.60;51.70;;;;;;4990990;28;20436;-89
2022/03/24 02:07:07;;;;;;;2.03;1.83;;;22.60;51.70;;;;;;4973282;28;20425;-89
2022/03/24 02:09:36;;;;;;;3.20;2.30;;;22.60;51.70;;;;;;4973798;28;20409;-89
2022/03/24 02:12:11;;;;;;;2.40;2.20;;;22.60;51.70;;;;;;4972862;28;20472;-89
2022/03/24 02:14:37;;;;;;;2.70;2.20;;;22.60;51.70;;;;;;4990031;28;20415;-89
2022/03/24 02:17:04;;;;;;;2.13;1.93;;;22.60;52.20;;;;;;4989416;28;20425;-89
2022/03/24 02:19:31;;;;;;;1.73;1.63;;;22.60;51.70;;;;;;4989508;28;20425;-89
2022/03/24 02:22:17;;;;;;;1.70;1.60;;;22.60;51.70;;;;;;4972471;28;20428;-90
2022/03/24 02:24:45;;;;;;;2.20;2.00;;;22.60;51.70;;;;;;4989245;28;20421;-90
2022/03/24 02:27:11;;;;;;;2.23;2.00;;;22.60;51.70;;;;;;4973135;28;20834;-89
2022/03/24 02:29:38;;;;;;;1.87;1.40;;;22.60;51.70;;;;;;4989775;28;20425;-90
2022/03/24 02:32:08;;;;;;;4.10;2.07;;;22.60;51.70;;;;;;4973243;28;20487;-90
2022/03/24 02:34:52;;;;;;;2.13;1.93;;;22.60;51.70;;;;;;4989117;28;20427;-89
2022/03/24 02:37:21;;;;;;;2.00;1.77;;;22.60;51.70;;;;;;4972541;28;20444;-89
2022/03/24 02:39:52;;;;;;;2.53;1.90;;;22.60;51.70;;;;;;4973281;28;21031;-89
2022/03/24 02:42:21;;;;;;;2.00;1.80;;;22.60;52.30;;;;;;4972158;28;20776;-90
2022/03/24 02:45:00;;;;;;;1.90;1.70;;;22.60;51.70;;;;;;4989916;28;20446;-90
2022/03/24 02:47:28;;;;;;;1.80;1.67;;;22.60;51.70;;;;;;4972721;28;20511;-88
2022/03/24 02:49:56;;;;;;;2.10;1.87;;;22.60;51.70;;;;;;4972049;28;20423;-91
2022/03/24 02:52:22;;;;;;;2.23;1.90;;;22.60;51.70;;;;;;4989301;28;20556;-88
2022/03/24 02:54:48;;;;;;;2.20;1.47;;;22.60;51.70;;;;;;4988407;28;20927;-89
2022/03/24 02:57:14;;;;;;;2.20;2.00;;;22.60;51.70;;;;;;4971586;28;20201;-90
2022/03/24 02:59:41;;;;;;;1.73;1.63;;;22.60;51.70;;;;;;4989059;28;20253;-90
2022/03/24 03:02:13;;;;;;;2.07;1.87;;;22.60;51.70;;;;;;4972366;28;20428;-91
2022/03/24 03:04:41;;;;;;;1.90;1.80;;;22.60;51.70;;;;;;4989548;28;20494;-90
2022/03/24 03:07:07;;;;;;;2.30;1.80;;;22.60;51.70;;;;;;4969104;29;20418;-90
2022/03/24 03:09:35;;;;;;;2.50;2.30;;;22.60;51.70;;;;;;4984790;28;20414;-91
2022/03/24 03:12:02;;;;;;;2.10;1.80;;;22.60;51.70;;;;;;4968512;29;20457;-91
2022/03/24 03:14:29;;;;;;;2.17;1.97;;;22.60;51.70;;;;;;4972044;28;20492;-90
2022/03/24 03:16:56;;;;;;;2.57;1.73;;;22.60;51.70;;;;;;4971435;28;20417;-90
2022/03/24 03:19:23;;;;;;;1.90;1.70;;;22.60;51.70;;;;;;4971591;28;20445;-90
2022/03/24 03:21:51;;;;;;;2.53;2.00;;;22.60;51.70;;;;;;4972248;28;20522;-90
2022/03/24 03:24:18;;;;;;;3.10;1.90;;;22.60;51.70;;;;;;4971132;28;20425;-90
2022/03/24 03:26:45;;;;;;;2.30;1.97;;;22.60;51.70;;;;;;4989135;28;20424;-91
2022/03/24 03:29:11;;;;;;;2.23;2.03;;;22.60;51.70;;;;;;4971347;28;20440;-90
2022/03/24 03:31:37;;;;;;;1.90;1.80;;;22.60;51.70;;;;;;4988865;28;20432;-90
2022/03/24 03:34:05;;;;;;;2.13;1.70;;;22.60;51.70;;;;;;4987647;28;20425;-90
2022/03/24 03:36:31;;;;;;;2.00;1.60;;;22.60;51.70;;;;;;4988510;28;20417;-90
2022/03/24 03:38:58;;;;;;;1.77;1.53;;;22.60;51.70;;;;;;4971658;28;20452;-90
2022/03/24 03:41:24;;;;;;;1.90;1.70;;;22.60;51.70;;;;;;4983491;28;20242;-90
2022/03/24 03:43:50;;;;;;;2.57;2.10;;;22.60;51.70;;;;;;4968989;28;20410;-90
2022/03/24 03:46:16;;;;;;;2.50;2.17;;;22.60;51.70;;;;;;4967660;29;20429;-90
2022/03/24 03:48:42;;;;;;;2.10;1.90;;;22.60;51.70;;;;;;4987151;28;20444;-90
2022/03/24 03:51:09;;;;;;;2.60;2.27;;;22.60;51.70;;;;;;4988566;28;20417;-91
2022/03/24 03:53:36;;;;;;;2.53;1.70;;;22.60;51.70;;;;;;4971834;28;20461;-90
2022/03/24 03:56:06;;;;;;;2.10;1.90;;;22.60;51.70;;;;;;4971076;28;20429;-90
2022/03/24 03:58:35;;;;;;;2.20;1.87;;;22.60;51.70;;;;;;4971286;28;20430;-90
2022/03/24 04:01:01;;;;;;;2.53;1.97;;;22.60;51.70;;;;;;4989068;28;20502;-90
2022/03/24 04:03:28;;;;;;;2.27;1.77;;;22.60;51.70;;;;;;4986771;28;20475;-90
2022/03/24 04:05:55;;;;;;;2.10;1.83;;;22.60;51.70;;;;;;4971325;28;20792;-91
2022/03/24 04:08:21;;;;;;;2.50;1.83;;;22.60;51.70;;;;;;4987798;28;20785;-90
2022/03/24 04:10:49;;;;;;;2.40;1.70;;;22.50;51.70;;;;;;4984294;28;20472;-91
2022/03/24 04:13:15;;;;;;;1.83;1.73;;;22.50;51.70;;;;;;4972146;28;20460;-91
2022/03/24 04:15:41;;;;;;;2.20;1.90;;;22.50;51.70;;;;;;4988446;28;20444;-91
2022/03/24 04:18:07;;;;;;;2.13;1.93;;;22.50;51.70;;;;;;4970758;28;20927;-91
2022/03/24 04:20:34;;;;;;;2.40;2.20;;;22.50;51.70;;;;;;4971278;28;20715;-91
2022/03/24 04:23:02;;;;;;;1.60;1.50;;;22.50;51.70;;;;;;4971987;28;20210;-91
2022/03/24 04:25:28;;;;;;;2.10;1.63;;;22.50;51.70;;;;;;4969427;29;20422;-91
2022/03/24 04:27:54;;;;;;;4.80;2.07;;;22.50;51.70;;;;;;4959665;28;21041;-90
2022/03/24 04:33:42;;;;;;;2.10;1.67;;;22.50;51.70;;;;;;4968511;29;20554;-90
2022/03/24 04:36:10;;;;;;;2.37;2.00;;;22.50;51.70;;;;;;4966852;28;20936;-90
2022/03/24 04:38:38;;;;;;;2.27;1.77;;;22.50;51.70;;;;;;4952435;29;20418;-90
2022/03/24 04:41:04;;;;;;;2.30;1.77;;;22.50;51.70;;;;;;4951778;29;20426;-90
2022/03/24 04:43:31;;;;;;;1.90;1.60;;;22.50;51.70;;;;;;4968117;29;20421;-91
2022/03/24 04:45:57;;;;;;;2.10;1.90;;;22.50;51.70;;;;;;4951810;29;20784;-89
2022/03/24 04:48:23;;;;;;;2.53;1.83;;;22.50;51.70;;;;;;4961854;28;20447;-90
2022/03/24 04:50:49;;;;;;;1.90;1.70;;;22.50;51.70;;;;;;4968026;29;20437;-89
2022/03/24 04:53:15;;;;;;;2.50;1.90;;;22.50;51.70;;;;;;4954042;29;20626;-89
2022/03/24 04:55:46;;;;;;;1.83;1.73;;;22.50;51.70;;;;;;4968000;29;20640;-89
2022/03/24 04:58:13;;;;;;;2.70;1.80;;;22.50;51.70;;;;;;4969082;29;20421;-89
2022/03/24 05:00:39;;;;;;;2.53;2.10;;;22.50;51.70;;;;;;4967848;29;20419;-89
2022/03/24 05:03:05;;;;;;;1.60;1.50;;;22.50;51.70;;;;;;4968927;29;20486;-89
2022/03/24 05:05:30;;;;;;;2.27;1.87;;;22.50;51.70;;;;;;4951688;29;20422;-89
2022/03/24 05:07:56;;;;;;;2.00;1.73;;;22.50;51.70;;;;;;4951737;29;20190;-90
2022/03/24 05:10:22;;;;;;;2.10;1.90;;;22.50;51.80;;;;;;4968397;29;20234;-89
2022/03/24 05:12:47;;;;;;;2.97;1.93;;;22.50;51.80;;;;;;4968106;29;20194;-90
2022/03/24 05:15:14;;;;;;;2.27;2.07;;;22.50;51.80;;;;;;4968357;28;20194;-89
2022/03/24 05:17:40;;;;;;;1.90;1.67;;;22.50;51.80;;;;;;4987136;28;20177;-90
2022/03/24 05:20:07;;;;;;;2.27;1.93;;;22.50;51.80;;;;;;4969355;28;20421;-91
2022/03/24 05:22:35;;;;;;;2.00;1.73;;;22.50;51.80;;;;;;4969968;28;20513;-91
2022/03/24 05:25:01;;;;;;;2.10;1.90;;;22.50;51.80;;;;;;4969795;28;20429;-90
2022/03/24 05:27:27;;;;;;;1.50;1.40;;;22.50;51.80;;;;;;4969728;28;20493;-88
2022/03/24 05:29:53;;;;;;;3.00;2.70;;;22.40;51.70;;;;;;4969477;28;20425;-90
2022/03/24 05:32:18;;;;;;;3.30;3.00;;;22.40;51.70;;;;;;4969234;28;20201;-90
2022/03/24 05:34:44;;;;;;;3.30;2.90;;;22.40;51.70;;;;;;4986002;28;20625;-90
2022/03/24 05:37:10;;;;;;;2.43;2.23;;;22.40;51.70;;;;;;4969214;28;20177;-91
2022/03/24 05:39:36;;;;;;;2.63;2.43;;;22.40;51.70;;;;;;4984552;28;20184;-90
2022/03/24 05:42:02;;;;;;;2.73;2.43;;;22.40;51.60;;;;;;4966255;29;20190;-90
2022/03/24 05:44:29;;;;;;;2.63;2.27;;;22.40;51.60;;;;;;4967292;28;20418;-91
2022/03/24 05:46:55;;;;;;;2.67;2.33;;;22.40;51.60;;;;;;4967787;28;20451;-90
2022/03/24 05:49:21;;;;;;;2.30;2.10;;;22.40;51.60;;;;;;4966956;29;20426;-90
2022/03/24 05:51:49;;;;;;;2.47;2.20;;;22.40;51.60;;;;;;4966482;29;20461;-90
2022/03/24 05:54:18;;;;;;;2.03;1.83;;;22.40;51.60;;;;;;4966849;29;20656;-89
2022/03/24 05:56:48;;;;;;;2.50;2.03;;;22.40;51.60;;;;;;4967653;28;20415;-89
2022/03/24 05:59:17;;;;;;;3.60;2.10;;;22.40;51.60;;;;;;4966500;28;20421;-90
2022/03/24 06:01:45;;;;;;;2.83;2.40;;;22.50;51.70;;;;;;4966143;29;20420;-90
2022/03/24 06:04:15;;;;;;;2.73;2.37;;;22.50;51.70;;;;;;4973345;28;20416;-91
2022/03/24 06:06:43;;;;;;;2.53;2.00;;;22.50;51.70;;;;;;4986362;28;20410;-89
2022/03/24 06:09:09;;;;;;;2.73;2.20;;;22.50;51.70;;;;;;4988448;28;20425;-89
2022/03/24 06:11:36;;;;;;;2.60;2.10;;;22.50;51.70;;;;;;4971682;28;20431;-89
2022/03/24 06:14:12;;;;;;;2.47;2.13;;;22.50;51.70;;;;;;4970441;28;20487;-89
2022/03/24 06:16:38;;;;;;;2.60;2.30;;;22.50;51.70;;;;;;4971013;28;20420;-88
2022/03/24 06:19:04;;;;;;;2.07;1.87;;;22.60;51.80;;;;;;4987644;28;21039;-89
2022/03/24 06:21:30;;;;;;;2.70;2.17;;;22.50;51.70;;;;;;4987281;28;20409;-88
2022/03/24 06:23:56;;;;;;;2.63;2.43;;;22.50;51.70;;;;;;4972205;28;20417;-88
2022/03/24 06:26:23;;;;;;;3.37;2.70;;;22.60;51.70;;;;;;4972214;28;20177;-88
2022/03/24 06:28:49;;;;;;;2.57;2.37;;;22.60;51.70;;;;;;4971751;28;20224;-88
2022/03/24 06:31:15;;;;;;;2.17;1.97;;;22.60;51.70;;;;;;4969364;28;20413;-88
2022/03/24 06:33:41;;;;;;;2.70;2.20;;;22.60;51.70;;;;;;4973953;28;20464;-89
2022/03/24 06:36:08;;;;;;;3.33;2.30;;;22.60;51.70;;;;;;4955745;29;20414;-89
2022/03/24 06:38:35;;;;;;;2.77;2.37;;;22.60;51.70;;;;;;4974137;28;20481;-89
2022/03/24 06:41:02;;;;;;;2.27;2.07;;;22.60;51.70;;;;;;4971790;28;20437;-89
2022/03/24 06:44:06;;;;;;;4.10;3.20;;;22.60;51.70;;;;;;4972338;28;20445;-89
2022/03/24 06:46:33;;;;;;;3.50;2.60;;;22.60;51.70;;;;;;4955575;29;20418;-88
2022/03/24 06:49:03;;;;;;;2.40;2.20;;;22.60;51.70;;;;;;4955038;29;20426;-89
2022/03/24 06:51:29;;;;;;;2.17;1.97;;;22.60;51.70;;;;;;4970530;28;20434;-89
2022/03/24 06:53:56;;;;;;;2.73;2.23;;;22.60;51.70;;;;;;4958283;28;20468;-89
2022/03/24 06:56:22;;;;;;;2.70;2.50;;;22.60;51.70;;;;;;4991413;28;20409;-89
2022/03/24 06:58:48;;;;;;;4.60;2.60;;;22.60;51.70;;;;;;4991507;28;20404;-89
2022/03/24 07:01:14;;;;;;;3.00;2.53;;;22.60;51.70;;;;;;4976284;28;20409;-89
2022/03/24 07:03:40;;;;;;;2.80;2.50;;;22.60;51.70;;;;;;4992126;28;20420;-89
2022/03/24 07:06:14;;;;;;;2.60;2.30;;;22.60;51.70;;;;;;4975034;28;20185;-89
2022/03/24 07:08:40;;;;;;;2.33;2.13;;;22.60;51.70;;;;;;4974923;28;20460;-89
2022/03/24 07:11:09;;;;;;;2.37;1.80;;;22.60;51.70;;;;;;4993592;28;20417;-88
2022/03/24 07:13:38;;;;;;;2.30;2.10;;;22.60;51.70;;;;;;4975741;28;20460;-89
2022/03/24 07:16:04;;;;;;;2.30;2.10;;;22.60;51.70;;;;;;4977102;28;20461;-89
2022/03/24 07:18:30;;;;;;;2.73;2.50;;;22.60;51.70;;;;;;4959192;29;20425;-89
2022/03/24 07:20:56;;;;;;;2.20;2.00;;;22.60;51.70;;;;;;4967200;28;20421;-89
2022/03/24 07:23:21;;;;;;;2.20;2.00;;;22.60;51.70;;;;;;4991366;28;20174;-88
2022/03/24 07:25:47;;;;;;;1.97;1.83;;;22.60;51.70;;;;;;4991973;28;20220;-88
2022/03/24 07:28:14;;;;;;;2.50;2.20;;;22.70;51.80;;;;;;4990195;28;20276;-89
2022/03/24 07:30:40;;;;;;;2.30;2.10;;;22.70;51.80;;;;;;4972560;28;20193;-89
2022/03/24 07:33:09;;;;;;;2.57;2.37;;;22.70;51.80;;;;;;4989689;28;20465;-88
2022/03/24 07:35:35;;;;;;;2.53;2.27;;;22.70;51.80;;;;;;4990519;28;20424;-89
2022/03/24 07:38:01;;;;;;;3.30;2.60;;;22.70;51.80;;;;;;4990769;28;20445;-89
2022/03/24 07:40:28;;;;;;;2.83;2.53;;;22.70;51.80;;;;;;4993316;28;20441;-89
2022/03/24 07:42:56;;;;;;;2.37;2.17;;;22.70;51.80;;;;;;4972899;28;20425;-89
2022/03/24 07:45:23;;;;;;;2.30;2.10;;;22.70;51.80;;;;;;4970745;29;20446;-89
2022/03/24 07:48:11;;;;;;;3.60;2.40;;;22.70;51.80;;;;;;4973135;29;20469;-89
2022/03/24 07:50:41;;;;;;;2.40;2.20;;;22.70;51.80;;;;;;4972166;28;20406;-89
2022/03/24 07:53:14;;;;;;;2.13;1.93;;;22.70;51.80;;;;;;4976182;28;20465;-89
2022/03/24 07:55:42;;;;;;;2.83;2.53;;;22.70;51.80;;;;;;4992507;28;20436;-89
2022/03/24 07:58:09;;;;;;;2.93;2.10;;;22.70;51.80;;;;;;4990858;28;20412;-89
2022/03/24 08:00:35;;;;;;;2.80;2.40;;;22.70;52.40;;;;;;4973326;28;20761;-89
2022/03/24 08:03:01;;;;;;;2.40;2.20;;;22.70;51.80;;;;;;4973232;28;20429;-90
2022/03/24 08:05:27;;;;;;;2.53;2.23;;;22.70;51.80;;;;;;4972279;28;20421;-89
2022/03/24 08:07:55;;;;;;;2.60;2.20;;;22.70;51.80;;;;;;4972298;28;20189;-90
2022/03/24 08:10:22;;;;;;;2.17;1.97;;;22.70;51.80;;;;;;4989811;28;20193;-89
2022/03/24 08:12:48;;;;;;;3.00;2.03;;;22.70;51.80;;;;;;4972054;28;20547;-89
2022/03/24 08:15:13;;;;;;;2.30;2.10;;;22.70;51.80;;;;;;4990057;28;20417;-90
2022/03/24 08:17:39;;;;;;;2.40;2.20;;;22.70;51.80;;;;;;4989647;28;20178;-89
2022/03/24 08:20:06;;;;;;;2.80;2.07;;;22.70;51.80;;;;;;4970797;28;20186;-89
2022/03/24 08:22:32;;;;;;;3.07;2.10;;;22.70;51.80;;;;;;4971583;28;20184;-90
2022/03/24 08:24:58;;;;;;;3.73;2.43;;;22.70;51.80;;;;;;4989087;28;20424;-89
2022/03/24 08:27:24;;;;;;;2.30;2.10;;;22.70;51.80;;;;;;4971319;28;20421;-89
2022/03/24 08:29:56;;;;;;;2.03;1.73;;;22.70;51.80;;;;;;4972146;28;20216;-89
2022/03/24 08:32:21;;;;;;;3.83;2.20;;;22.70;51.80;;;;;;4987490;28;20628;-89
2022/03/24 08:34:47;;;;;;;4.00;2.30;;;22.70;51.80;;;;;;4987689;28;20413;-90
2022/03/24 08:37:13;;;;;;;2.77;2.00;;;22.70;51.80;;;;;;4991120;28;20174;-89
2022/03/24 08:39:39;;;;;;;2.30;2.10;;;22.70;51.80;;;;;;4974259;28;20188;-89
2022/03/24 08:42:05;;;;;;;2.20;2.00;;;22.70;51.80;;;;;;4971759;28;20236;-89
2022/03/24 08:44:31;;;;;;;2.80;2.23;;;22.70;51.80;;;;;;4974212;28;20178;-89
2022/03/24 08:46:57;;;;;;;2.77;2.53;;;22.70;51.80;;;;;;4972521;28;20425;-89
2022/03/24 08:49:22;;;;;;;1.80;1.50;;;22.70;51.80;;;;;;4952851;29;20193;-89
2022/03/24 08:51:48;;;;;;;3.50;2.33;;;22.70;51.80;;;;;;4987665;28;20197;-89
2022/03/24 08:54:14;;;;;;;2.17;1.97;;;22.70;51.80;;;;;;4989052;28;20213;-89
2022/03/24 08:56:40;;;;;;;4.10;2.20;;;22.70;51.90;;;;;;4970909;28;20178;-89
2022/03/24 08:59:06;;;;;;;2.40;1.97;;;22.70;51.80;;;;;;4971453;28;20231;-89
2022/03/24 09:01:32;;;;;;;2.93;2.10;;;22.70;51.80;;;;;;4971549;28;20189;-89
2022/03/24 09:03:58;;;;;;;2.30;2.10;;;22.70;51.80;;;;;;4971113;28;20484;-89
2022/03/24 09:06:24;;;;;;;3.70;2.30;;;22.70;51.80;;;;;;4988775;28;20418;-89
2022/03/24 09:08:50;;;;;;;2.40;2.07;;;22.70;51.80;;;;;;4973082;28;20613;-89
2022/03/24 09:11:15;;;;;;;2.10;1.90;;;22.70;51.80;;;;;;4971327;28;20189;-89
2022/03/24 09:13:42;;;;;;;2.33;2.13;;;22.70;51.80;;;;;;4972549;28;20228;-90
2022/03/24 09:16:08;;;;;;;2.20;2.00;;;22.70;51.80;;;;;;4988456;28;20181;-89
2022/03/24 09:18:34;;;;;;;2.23;1.80;;;22.70;51.80;;;;;;4972541;28;20413;-88
2022/03/24 09:21:01;;;;;;;2.30;2.10;;;22.70;51.80;;;;;;4990144;28;20411;-88
2022/03/24 09:23:28;;;;;;;2.17;1.90;;;22.70;51.80;;;;;;4989999;28;20414;-88
2022/03/24 09:25:55;;;;;;;2.10;1.90;;;22.70;51.80;;;;;;4990103;28;20420;-88
2022/03/24 09:28:22;;;;;;;1.97;1.80;;;22.70;51.80;;;;;;4990129;28;20433;-88
2022/03/24 09:30:51;;;;;;;2.30;2.10;;;22.70;51.80;;;;;;4990102;28;20441;-87
2022/03/24 09:33:21;;;;;;;2.33;2.13;;;22.70;51.80;;;;;;4973796;28;20484;-88
2022/03/24 09:35:48;;;;;;;2.50;2.10;;;22.70;51.80;;;;;;4974673;28;20424;-88
2022/03/24 09:38:14;;;;;;;1.90;1.80;;;22.70;51.80;;;;;;4990249;28;20899;-88
2022/03/24 09:40:40;;;;;;;4.23;2.30;;;22.70;51.80;;;;;;4989187;28;20416;-88
2022/03/24 09:43:06;;;;;;;2.20;2.00;;;22.70;51.80;;;;;;4991342;28;20167;-88
2022/03/24 09:45:33;;;;;;;2.70;1.90;;;22.70;51.80;;;;;;4971990;28;20428;-88
2022/03/24 09:47:59;;;;;;;3.00;2.20;;;22.70;51.80;;;;;;4989050;28;20417;-88
2022/03/24 09:50:25;;;;;;;1.80;1.70;;;22.70;51.80;;;;;;4991428;28;20421;-88
2022/03/24 09:52:52;;;;;;;2.20;2.00;;;22.70;51.80;;;;;;4988792;28;20464;-88
2022/03/24 09:55:19;;;;;;;2.93;2.37;;;22.70;51.80;;;;;;4988896;28;20488;-88
2022/03/24 09:57:47;;;;;;;2.37;2.07;;;22.70;51.80;;;;;;4987866;28;20508;-88
2022/03/24 10:00:15;;;;;;;2.13;1.93;;;22.70;51.80;;;;;;4987609;28;20420;-88
2022/03/24 10:02:41;;;;;;;2.63;2.23;;;22.70;51.80;;;;;;4988026;28;20422;-88
2022/03/24 10:05:08;;;;;;;2.30;2.00;;;22.70;51.80;;;;;;4989338;28;20421;-88
2022/03/24 10:07:47;;;;;;;3.97;2.17;;;22.70;51.80;;;;;;4974614;28;20188;-88
2022/03/24 10:10:24;;;;;;;2.23;1.80;;;22.70;52.40;;;;;;4990309;28;20416;-88
2022/03/24 10:12:50;;;;;;;2.20;1.80;;;22.70;51.80;;;;;;4970787;29;20461;-88
2022/03/24 10:15:17;;;;;;;2.03;1.87;;;22.70;51.90;;;;;;4971832;29;20410;-88
2022/03/24 10:17:54;;;;;;;2.07;1.70;;;22.70;51.90;;;;;;4972115;28;20532;-89
2022/03/24 10:20:21;;;;;;;1.97;1.77;;;22.70;51.90;;;;;;4971324;29;20417;-89
2022/03/24 10:23:01;;;;;;;2.17;1.93;;;22.70;51.80;;;;;;4972599;28;20421;-90
2022/03/24 10:25:28;;;;;;;2.30;2.10;;;22.70;51.90;;;;;;4972353;28;20402;-89
2022/03/24 10:28:08;;;;;;;2.00;1.83;;;22.70;51.90;;;;;;4990422;28;20437;-89
2022/03/24 10:30:54;;;;;;;1.90;1.63;;;22.70;51.90;;;;;;4972549;29;20467;-89
2022/03/24 10:33:33;;;;;;;1.73;1.63;;;22.70;51.90;;;;;;4975733;28;20476;-89
2022/03/24 10:36:17;;;;;;;2.17;1.97;;;22.70;51.90;;;;;;4976626;28;20408;-89
2022/03/24 10:38:48;;;;;;;1.83;1.70;;;22.70;51.90;;;;;;4975216;28;20409;-90
2022/03/24 10:41:17;;;;;;;2.10;1.93;;;22.70;51.90;;;;;;4977566;28;20416;-89
2022/03/24 10:43:45;;;;;;;2.50;1.70;;;22.70;51.90;;;;;;4992979;28;20513;-89
2022/03/24 10:46:26;;;;;;;1.80;1.70;;;22.70;51.90;;;;;;4991210;28;20440;-89
2022/03/24 10:48:52;;;;;;;2.90;1.80;;;22.70;51.90;;;;;;4993631;28;20786;-89
2022/03/24 10:51:25;;;;;;;2.07;1.83;;;22.70;51.90;;;;;;4991607;28;20429;-89
2022/03/24 10:53:51;;;;;;;1.93;1.73;;;22.70;51.90;;;;;;4991706;28;20461;-88
2022/03/24 10:56:25;;;;;;;2.00;1.80;;;22.70;51.90;;;;;;4973812;28;20428;-89
2022/03/24 10:58:59;;;;;;;2.03;1.83;;;22.70;51.90;;;;;;4990103;28;20381;-88
2022/03/24 11:01:28;;;;;;;2.73;2.00;;;22.70;51.90;;;;;;4973078;28;20421;-88
2022/03/24 11:03:55;;;;;;;2.00;1.80;;;22.70;51.90;;;;;;4989997;28;20432;-88
2022/03/24 11:06:24;;;;;;;1.80;1.70;;;22.70;51.90;;;;;;4989884;28;20417;-88
2022/03/24 11:08:56;;;;;;;2.20;2.00;;;22.70;51.90;;;;;;4990873;28;20432;-88
2022/03/24 11:11:22;;;;;;;2.00;1.80;;;22.70;51.90;;;;;;4990614;28;20437;-88
2022/03/24 11:13:57;;;;;;;2.27;1.87;;;22.70;51.90;;;;;;4990689;28;20522;-88
2022/03/24 11:16:30;;;;;;;1.90;1.70;;;22.80;52.00;;;;;;4972436;28;20428;-88
2022/03/24 11:18:58;;;;;;;2.90;1.90;;;22.70;51.90;;;;;;4974993;28;20481;-89
2022/03/24 11:21:32;;;;;;;1.93;1.77;;;22.70;51.90;;;;;;4973293;28;20500;-88
2022/03/24 11:23:58;;;;;;;2.70;1.90;;;22.70;51.90;;;;;;4990767;28;20428;-88
2022/03/24 11:26:25;;;;;;;2.00;1.50;;;22.70;51.90;;;;;;4973966;28;20790;-88
2022/03/24 11:28:54;;;;;;;2.47;2.27;;;22.70;51.90;;;;;;4991087;28;20440;-88
2022/03/24 11:31:23;;;;;;;1.77;1.60;;;22.70;51.90;;;;;;4992409;28;20420;-88
2022/03/24 11:33:54;;;;;;;1.90;1.70;;;22.70;52.50;;;;;;4975188;28;20484;-88
2022/03/24 11:36:23;;;;;;;3.33;2.13;;;22.70;51.90;;;;;;4955813;29;20414;-88
2022/03/24 11:38:56;;;;;;;1.90;1.70;;;22.70;51.90;;;;;;4956476;29;20414;-88
2022/03/24 11:41:44;;;;;;;2.03;1.93;;;22.70;51.90;;;;;;4966359;28;20429;-88
2022/03/24 11:44:51;;;;;;;2.47;1.80;;;22.70;51.90;;;;;;4982354;28;20430;-89
2022/03/24 11:47:22;;;;;;;1.83;1.73;;;22.70;51.90;;;;;;4875089;29;20426;-89
2022/03/24 11:50:09;;;;;;;1.70;1.60;;;22.70;51.90;;;;;;4858282;29;20435;-89
2022/03/24 11:52:35;;;;;;;1.93;1.80;;;22.70;52.50;;;;;;4859380;29;20811;-88
2022/03/24 11:55:01;;;;;;;2.77;2.00;;;22.70;52.00;;;;;;4875717;29;20415;-88
2022/03/24 11:57:34;;;;;;;2.43;1.93;;;22.70;51.90;;;;;;4873479;29;20208;-88
2022/03/24 12:00:12;;;;;;;2.40;1.70;;;22.70;51.90;;;;;;4875832;29;20165;-89
2022/03/24 12:02:39;;;;;;;5.60;2.60;;;22.70;51.90;;;;;;4874086;29;20551;-89
2022/03/24 12:05:05;;;;;;;11.00;2.27;;;22.70;51.90;;;;;;4875593;29;20422;-88
2022/03/24 12:07:31;;;;;;;6.20;2.67;;;22.70;51.90;;;;;;4884213;29;20453;-88
2022/03/24 12:10:02;;;;;;;3.83;2.70;;;22.70;51.90;;;;;;4894538;29;20436;-88
2022/03/24 12:12:29;;;;;;;5.57;3.10;;;22.70;51.90;;;;;;4879607;29;20543;-88
2022/03/24 12:14:55;;;;;;;7.13;3.90;;;22.80;52.00;;;;;;4894172;29;20485;-88
2022/03/24 12:17:31;;;;;;;7.77;3.67;;;22.80;52.00;;;;;;4879321;29;20414;-88
2022/03/24 12:19:59;;;;;;;11.60;5.20;;;22.70;51.90;;;;;;4905425;28;20435;-88
2022/03/24 12:22:51;;;;;;;8.43;5.00;;;22.80;52.00;;;;;;4972614;28;20436;-88
2022/03/24 12:25:18;;;;;;;7.97;4.97;;;22.70;52.00;;;;;;4895325;29;20425;-89
2022/03/24 12:28:06;;;;;;;12.70;5.90;;;22.80;52.00;;;;;;4876401;29;20533;-88
2022/03/24 12:30:53;;;;;;;6.67;4.27;;;22.80;52.00;;;;;;4875247;29;20482;-88
2022/03/24 12:33:40;;;;;;;14.73;5.37;;;22.80;52.10;;;;;;4877186;29;20466;-88
2022/03/24 12:36:14;;;;;;;11.23;5.33;;;22.80;52.10;;;;;;4875196;29;20439;-88
2022/03/24 12:38:46;;;;;;;15.57;6.83;;;22.80;52.10;;;;;;4864103;29;20492;-89
2022/03/24 12:41:13;;;;;;;13.27;5.80;;;22.80;52.10;;;;;;4892623;29;20517;-90
2022/03/24 12:43:59;;;;;;;10.43;6.03;;;22.80;52.10;;;;;;4876821;29;20436;-88
2022/03/24 12:46:33;;;;;;;13.40;5.47;;;22.80;52.10;;;;;;4893760;29;20256;-89
2022/03/24 12:49:40;;;;;;;12.67;5.60;;;22.80;52.10;;;;;;4877672;29;20423;-88
2022/03/24 12:52:11;;;;;;;11.27;6.23;;;22.80;52.10;;;;;;4895188;29;20453;-88
2022/03/24 12:54:51;;;;;;;16.50;6.07;;;22.80;52.10;;;;;;4878141;29;20413;-89
2022/03/24 12:57:21;;;;;;;12.47;6.20;;;22.80;52.10;;;;;;4877306;29;20459;-89